sensor_id;sensor_type;location;lat;lon;timestamp;temperature;humidity
56761;DHT22;42633;44.494;11.356;2022-10-16T15:53:39;24.00;89.30
56761;DHT22;42633;44.494;11.356;2022-10-16T15:57:16;23.90;89.80
56761;DHT22;42633;44.494;11.356;2022-10-16T16:00:36;23.90;90.00
56761;DHT22;42633;44.494;11.356;2022-10-16T16:04:34;23.80;90.00
56761;DHT22;42633;44.494;11.356;2022-10-16T16:07:41;23.70;90.30
56761;DHT22;42633;44.494;11.356;2022-10-16T16:10:56;23.70;90.10
56761;DHT22;42633;44.494;11.356;2022-10-16T16:14:15;23.60;90.30
56761;DHT22;42633;44.494;11.356;2022-10-16T16:17:19;23.60;90.40
56761;DHT22;42633;44.494;11.356;2022-10-16T16:20:24;23.50;90.70
56761;DHT22;42633;44.494;11.356;2022-10-16T16:23:28;23.50;90.80
56761;DHT22;42633;44.494;11.356;2022-10-16T16:26:34;23.40;90.70
56761;DHT22;42633;44.494;11.356;2022-10-16T16:29:46;23.30;90.90
56761;DHT22;42633;44.494;11.356;2022-10-16T16:32:51;23.20;91.20
56761;DHT22;42633;44.494;11.356;2022-10-16T16:36:01;23.20;91.30
56761;DHT22;42633;44.494;11.356;2022-10-16T16:39:07;23.10;91.50
56761;DHT22;42633;44.494;11.356;2022-10-16T16:42:12;23.00;91.70
56761;DHT22;42633;44.494;11.356;2022-10-16T16:45:16;22.90;91.80
56761;DHT22;42633;44.494;11.356;2022-10-16T16:48:22;22.80;92.00
56761;DHT22;42633;44.494;11.356;2022-10-16T16:51:26;22.70;92.10
56761;DHT22;42633;44.494;11.356;2022-10-16T16:54:32;22.70;92.40
56761;DHT22;42633;44.494;11.356;2022-10-16T16:57:44;22.60;92.50
56761;DHT22;42633;44.494;11.356;2022-10-16T17:00:48;22.60;92.50
56761;DHT22;42633;44.494;11.356;2022-10-16T17:03:54;22.50;92.70
56761;DHT22;42633;44.494;11.356;2022-10-16T17:07:02;22.50;92.80
56761;DHT22;42633;44.494;11.356;2022-10-16T17:10:08;22.40;93.10
56761;DHT22;42633;44.494;11.356;2022-10-16T17:13:16;22.40;93.30
56761;DHT22;42633;44.494;11.356;2022-10-16T17:16:22;22.40;93.50
56761;DHT22;42633;44.494;11.356;2022-10-16T17:19:29;22.30;93.80
56761;DHT22;42633;44.494;11.356;2022-10-16T17:22:33;22.30;93.90
56761;DHT22;42633;44.494;11.356;2022-10-16T17:25:41;22.20;94.40
56761;DHT22;42633;44.494;11.356;2022-10-16T17:28:45;22.20;94.90
56761;DHT22;42633;44.494;11.356;2022-10-16T17:31:55;22.20;95.30
56761;DHT22;42633;44.494;11.356;2022-10-16T17:35:00;22.10;95.50
56761;DHT22;42633;44.494;11.356;2022-10-16T17:38:05;22.10;95.80
56761;DHT22;42633;44.494;11.356;2022-10-16T17:41:21;22.10;96.00
56761;DHT22;42633;44.494;11.356;2022-10-16T17:44:27;22.10;96.30
56761;DHT22;42633;44.494;11.356;2022-10-16T17:47:34;22.00;96.30
56761;DHT22;42633;44.494;11.356;2022-10-16T17:50:42;22.00;96.40
56761;DHT22;42633;44.494;11.356;2022-10-16T17:53:50;22.00;96.50
56761;DHT22;42633;44.494;11.356;2022-10-16T17:56:56;21.90;96.50
56761;DHT22;42633;44.494;11.356;2022-10-16T18:00:01;21.90;96.70
56761;DHT22;42633;44.494;11.356;2022-10-16T18:03:10;21.80;96.80
56761;DHT22;42633;44.494;11.356;2022-10-16T18:06:15;21.80;97.10
56761;DHT22;42633;44.494;11.356;2022-10-16T18:09:19;21.70;97.30
56761;DHT22;42633;44.494;11.356;2022-10-16T18:12:25;21.60;97.50
56761;DHT22;42633;44.494;11.356;2022-10-16T18:15:29;21.60;97.60
56761;DHT22;42633;44.494;11.356;2022-10-16T18:18:39;21.50;97.70
56761;DHT22;42633;44.494;11.356;2022-10-16T18:21:44;21.50;97.90
56761;DHT22;42633;44.494;11.356;2022-10-16T18:24:48;21.40;98.10
56761;DHT22;42633;44.494;11.356;2022-10-16T18:27:56;21.40;98.30
56761;DHT22;42633;44.494;11.356;2022-10-16T18:31:06;21.40;98.50
56761;DHT22;42633;44.494;11.356;2022-10-16T18:34:29;21.30;98.60
56761;DHT22;42633;44.494;11.356;2022-10-16T18:37:42;21.30;98.70
56761;DHT22;42633;44.494;11.356;2022-10-16T18:40:48;21.30;98.80
56761;DHT22;42633;44.494;11.356;2022-10-16T18:43:53;21.30;98.90
56761;DHT22;42633;44.494;11.356;2022-10-16T18:47:02;21.30;99.10
56761;DHT22;42633;44.494;11.356;2022-10-16T18:50:07;21.20;99.20
56761;DHT22;42633;44.494;11.356;2022-10-16T18:53:13;21.20;99.40
56761;DHT22;42633;44.494;11.356;2022-10-16T18:56:23;21.10;99.60
56761;DHT22;42633;44.494;11.356;2022-10-16T18:59:36;21.10;99.70
56761;DHT22;42633;44.494;11.356;2022-10-16T19:02:44;21.10;99.90
56761;DHT22;42633;44.494;11.356;2022-10-16T19:05:49;21.00;99.90
56761;DHT22;42633;44.494;11.356;2022-10-16T19:08:56;20.90;99.90
56761;DHT22;42633;44.494;11.356;2022-10-16T19:12:00;20.90;99.90
56761;DHT22;42633;44.494;11.356;2022-10-16T19:15:10;20.90;99.90
56761;DHT22;42633;44.494;11.356;2022-10-16T19:18:15;20.80;99.90
56761;DHT22;42633;44.494;11.356;2022-10-16T19:21:21;20.80;99.90
56761;DHT22;42633;44.494;11.356;2022-10-16T19:24:26;20.70;99.90
56761;DHT22;42633;44.494;11.356;2022-10-16T19:27:30;20.60;99.90
56761;DHT22;42633;44.494;11.356;2022-10-16T19:30:39;20.60;99.90
56761;DHT22;42633;44.494;11.356;2022-10-16T19:33:45;20.50;99.90
56761;DHT22;42633;44.494;11.356;2022-10-16T19:37:00;20.50;99.90
56761;DHT22;42633;44.494;11.356;2022-10-16T19:40:15;20.50;99.90
56761;DHT22;42633;44.494;11.356;2022-10-16T19:43:22;20.40;99.90
56761;DHT22;42633;44.494;11.356;2022-10-16T19:46:27;20.40;99.90
56761;DHT22;42633;44.494;11.356;2022-10-16T19:49:32;20.30;99.90
56761;DHT22;42633;44.494;11.356;2022-10-16T19:52:37;20.30;99.90
56761;DHT22;42633;44.494;11.356;2022-10-16T19:55:43;20.30;99.90
56761;DHT22;42633;44.494;11.356;2022-10-16T19:58:50;20.30;99.90
56761;DHT22;42633;44.494;11.356;2022-10-16T20:05:53;20.10;99.90
56761;DHT22;42633;44.494;11.356;2022-10-16T20:08:58;20.00;99.90
56761;DHT22;42633;44.494;11.356;2022-10-16T20:12:03;19.90;99.90
56761;DHT22;42633;44.494;11.356;2022-10-16T20:15:08;19.90;99.90
56761;DHT22;42633;44.494;11.356;2022-10-16T20:18:19;19.90;99.90
56761;DHT22;42633;44.494;11.356;2022-10-16T20:21:30;19.90;99.90
56761;DHT22;42633;44.494;11.356;2022-10-16T20:24:39;19.80;99.90
56761;DHT22;42633;44.494;11.356;2022-10-16T20:27:48;19.80;99.90
56761;DHT22;42633;44.494;11.356;2022-10-16T20:30:54;19.90;99.90
56761;DHT22;42633;44.494;11.356;2022-10-16T20:34:03;19.90;99.90
56761;DHT22;42633;44.494;11.356;2022-10-16T20:37:09;19.90;99.90
56761;DHT22;42633;44.494;11.356;2022-10-16T20:40:14;20.00;99.90
56761;DHT22;42633;44.494;11.356;2022-10-16T20:43:20;20.00;99.90
56761;DHT22;42633;44.494;11.356;2022-10-16T20:46:34;20.10;99.90
56761;DHT22;42633;44.494;11.356;2022-10-16T20:49:44;20.10;99.90
56761;DHT22;42633;44.494;11.356;2022-10-16T20:52:49;20.10;99.90
56761;DHT22;42633;44.494;11.356;2022-10-16T20:55:54;20.10;99.90
56761;DHT22;42633;44.494;11.356;2022-10-16T20:59:07;20.10;99.90
56761;DHT22;42633;44.494;11.356;2022-10-16T21:02:12;20.10;99.90
56761;DHT22;42633;44.494;11.356;2022-10-16T21:05:19;20.10;99.90
56761;DHT22;42633;44.494;11.356;2022-10-16T21:08:26;20.10;99.90
56761;DHT22;42633;44.494;11.356;2022-10-16T21:11:38;20.10;99.90
56761;DHT22;42633;44.494;11.356;2022-10-16T21:15:02;20.20;99.90
56761;DHT22;42633;44.494;11.356;2022-10-16T21:18:08;20.10;99.90
56761;DHT22;42633;44.494;11.356;2022-10-16T21:21:24;20.10;99.90
56761;DHT22;42633;44.494;11.356;2022-10-16T21:24:29;20.10;99.90
56761;DHT22;42633;44.494;11.356;2022-10-16T21:27:38;20.10;99.90
56761;DHT22;42633;44.494;11.356;2022-10-16T21:30:47;20.10;99.90
56761;DHT22;42633;44.494;11.356;2022-10-16T21:33:52;20.10;99.90
56761;DHT22;42633;44.494;11.356;2022-10-16T21:36:58;20.00;99.90
56761;DHT22;42633;44.494;11.356;2022-10-16T21:40:05;19.90;99.90
56761;DHT22;42633;44.494;11.356;2022-10-16T21:43:11;19.90;99.90
56761;DHT22;42633;44.494;11.356;2022-10-16T21:46:18;19.80;99.90
56761;DHT22;42633;44.494;11.356;2022-10-16T21:49:23;19.70;99.90
56761;DHT22;42633;44.494;11.356;2022-10-16T21:52:31;19.70;99.90
56761;DHT22;42633;44.494;11.356;2022-10-16T21:55:37;19.60;99.90
56761;DHT22;42633;44.494;11.356;2022-10-16T21:58:43;19.50;99.90
56761;DHT22;42633;44.494;11.356;2022-10-16T22:01:48;19.40;99.90
56761;DHT22;42633;44.494;11.356;2022-10-16T22:04:55;19.40;99.90
56761;DHT22;42633;44.494;11.356;2022-10-16T22:08:00;19.30;99.90
56761;DHT22;42633;44.494;11.356;2022-10-16T22:11:10;19.20;99.90
56761;DHT22;42633;44.494;11.356;2022-10-16T22:14:18;19.20;99.90
56761;DHT22;42633;44.494;11.356;2022-10-16T22:17:23;19.10;99.90
56761;DHT22;42633;44.494;11.356;2022-10-16T22:20:34;19.00;99.90
56761;DHT22;42633;44.494;11.356;2022-10-16T22:23:42;19.00;99.90
56761;DHT22;42633;44.494;11.356;2022-10-16T22:26:46;19.00;99.90
56761;DHT22;42633;44.494;11.356;2022-10-16T22:29:52;19.00;99.90
56761;DHT22;42633;44.494;11.356;2022-10-16T22:32:57;19.00;99.90
56761;DHT22;42633;44.494;11.356;2022-10-16T22:36:05;18.90;99.90
56761;DHT22;42633;44.494;11.356;2022-10-16T22:39:11;18.90;99.90
56761;DHT22;42633;44.494;11.356;2022-10-16T22:42:17;18.90;99.90
56761;DHT22;42633;44.494;11.356;2022-10-16T22:45:21;18.90;99.90
56761;DHT22;42633;44.494;11.356;2022-10-16T22:48:31;18.80;99.90
56761;DHT22;42633;44.494;11.356;2022-10-16T22:51:59;18.80;99.90
56761;DHT22;42633;44.494;11.356;2022-10-16T22:55:03;18.80;99.90
56761;DHT22;42633;44.494;11.356;2022-10-16T22:58:09;18.80;99.90
56761;DHT22;42633;44.494;11.356;2022-10-16T23:01:24;18.80;99.90
56761;DHT22;42633;44.494;11.356;2022-10-16T23:04:31;18.80;99.90
56761;DHT22;42633;44.494;11.356;2022-10-16T23:07:37;18.70;99.90
56761;DHT22;42633;44.494;11.356;2022-10-16T23:10:43;18.70;99.90
56761;DHT22;42633;44.494;11.356;2022-10-16T23:13:48;18.70;99.90
56761;DHT22;42633;44.494;11.356;2022-10-16T23:16:54;18.60;99.90
56761;DHT22;42633;44.494;11.356;2022-10-16T23:20:03;18.60;99.90
56761;DHT22;42633;44.494;11.356;2022-10-16T23:23:12;18.60;99.90
56761;DHT22;42633;44.494;11.356;2022-10-16T23:26:20;18.50;99.90
56761;DHT22;42633;44.494;11.356;2022-10-16T23:30:33;18.50;99.90
56761;DHT22;42633;44.494;11.356;2022-10-16T23:34:02;18.50;99.90
56761;DHT22;42633;44.494;11.356;2022-10-16T23:37:10;18.40;99.90
56761;DHT22;42633;44.494;11.356;2022-10-16T23:40:17;18.40;99.90
56761;DHT22;42633;44.494;11.356;2022-10-16T23:43:34;18.50;99.90
56761;DHT22;42633;44.494;11.356;2022-10-16T23:46:41;18.50;99.90
56761;DHT22;42633;44.494;11.356;2022-10-16T23:50:06;18.50;99.90
56761;DHT22;42633;44.494;11.356;2022-10-16T23:53:11;18.50;99.90
56761;DHT22;42633;44.494;11.356;2022-10-16T23:56:18;18.40;99.90
56761;DHT22;42633;44.494;11.356;2022-10-16T23:59:23;18.40;99.90
